sensor_id;sensor_type;location;lat;lon;timestamp;temperature;humidity
2867;DHT22;1441;48.886;8.728;2022-12-29T00:01:45;9.30;91.80
2867;DHT22;1441;48.886;8.728;2022-12-29T00:04:12;9.30;91.90
2867;DHT22;1441;48.886;8.728;2022-12-29T00:06:38;9.30;92.30
2867;DHT22;1441;48.886;8.728;2022-12-29T00:09:04;9.30;92.10
2867;DHT22;1441;48.886;8.728;2022-12-29T00:11:30;9.30;91.90
2867;DHT22;1441;48.886;8.728;2022-12-29T00:13:55;9.30;92.10
2867;DHT22;1441;48.886;8.728;2022-12-29T00:16:44;9.40;91.90
2867;DHT22;1441;48.886;8.728;2022-12-29T00:19:11;9.50;91.40
2867;DHT22;1441;48.886;8.728;2022-12-29T00:21:56;9.50;91.50
2867;DHT22;1441;48.886;8.728;2022-12-29T00:24:41;9.60;91.10
2867;DHT22;1441;48.886;8.728;2022-12-29T00:27:30;9.60;91.20
2867;DHT22;1441;48.886;8.728;2022-12-29T00:30:20;9.60;91.20
2867;DHT22;1441;48.886;8.728;2022-12-29T00:33:18;9.70;91.30
2867;DHT22;1441;48.886;8.728;2022-12-29T00:36:21;9.70;90.70
2867;DHT22;1441;48.886;8.728;2022-12-29T00:38:51;9.80;90.20
2867;DHT22;1441;48.886;8.728;2022-12-29T00:41:36;9.80;89.90
2867;DHT22;1441;48.886;8.728;2022-12-29T00:44:21;9.80;89.80
2867;DHT22;1441;48.886;8.728;2022-12-29T00:46:46;9.90;89.30
2867;DHT22;1441;48.886;8.728;2022-12-29T00:49:13;9.90;89.30
2867;DHT22;1441;48.886;8.728;2022-12-29T00:52:08;10.00;89.10
2867;DHT22;1441;48.886;8.728;2022-12-29T00:54:36;10.00;89.10
2867;DHT22;1441;48.886;8.728;2022-12-29T00:57:03;10.10;89.00
2867;DHT22;1441;48.886;8.728;2022-12-29T00:59:29;10.10;89.30
2867;DHT22;1441;48.886;8.728;2022-12-29T01:01:55;10.10;89.60
2867;DHT22;1441;48.886;8.728;2022-12-29T01:04:23;10.10;89.80
2867;DHT22;1441;48.886;8.728;2022-12-29T01:06:49;10.10;90.20
2867;DHT22;1441;48.886;8.728;2022-12-29T01:09:15;10.20;90.50
2867;DHT22;1441;48.886;8.728;2022-12-29T01:12:00;10.40;90.40
2867;DHT22;1441;48.886;8.728;2022-12-29T01:14:26;10.50;90.80
2867;DHT22;1441;48.886;8.728;2022-12-29T01:16:52;10.60;90.50
2867;DHT22;1441;48.886;8.728;2022-12-29T01:19:18;10.70;90.40
2867;DHT22;1441;48.886;8.728;2022-12-29T01:21:45;10.70;90.90
2867;DHT22;1441;48.886;8.728;2022-12-29T01:24:10;10.70;91.10
2867;DHT22;1441;48.886;8.728;2022-12-29T01:26:36;10.70;91.00
2867;DHT22;1441;48.886;8.728;2022-12-29T01:29:01;10.80;91.30
2867;DHT22;1441;48.886;8.728;2022-12-29T01:31:27;10.80;91.00
2867;DHT22;1441;48.886;8.728;2022-12-29T01:33:52;10.90;90.40
2867;DHT22;1441;48.886;8.728;2022-12-29T01:36:19;10.90;90.40
2867;DHT22;1441;48.886;8.728;2022-12-29T01:38:45;11.00;91.10
2867;DHT22;1441;48.886;8.728;2022-12-29T01:41:13;10.90;91.60
2867;DHT22;1441;48.886;8.728;2022-12-29T01:48:51;10.90;91.00
2867;DHT22;1441;48.886;8.728;2022-12-29T01:51:18;10.90;89.80
2867;DHT22;1441;48.886;8.728;2022-12-29T01:53:45;10.90;89.10
2867;DHT22;1441;48.886;8.728;2022-12-29T01:56:13;11.00;88.90
2867;DHT22;1441;48.886;8.728;2022-12-29T01:58:43;11.10;88.20
2867;DHT22;1441;48.886;8.728;2022-12-29T02:01:10;11.10;87.80
2867;DHT22;1441;48.886;8.728;2022-12-29T02:03:36;11.20;87.40
2867;DHT22;1441;48.886;8.728;2022-12-29T02:08:30;11.20;87.10
2867;DHT22;1441;48.886;8.728;2022-12-29T02:10:57;11.20;87.10
2867;DHT22;1441;48.886;8.728;2022-12-29T02:13:25;11.30;86.70
2867;DHT22;1441;48.886;8.728;2022-12-29T02:16:03;11.30;86.80
2867;DHT22;1441;48.886;8.728;2022-12-29T02:22:05;11.40;86.30
2867;DHT22;1441;48.886;8.728;2022-12-29T02:29:58;11.50;85.80
2867;DHT22;1441;48.886;8.728;2022-12-29T02:32:52;11.40;85.80
2867;DHT22;1441;48.886;8.728;2022-12-29T02:40:58;11.40;85.80
2867;DHT22;1441;48.886;8.728;2022-12-29T02:46:35;11.60;85.60
2867;DHT22;1441;48.886;8.728;2022-12-29T02:49:15;11.60;85.30
2867;DHT22;1441;48.886;8.728;2022-12-29T02:51:58;11.60;85.50
2867;DHT22;1441;48.886;8.728;2022-12-29T02:54:25;11.60;85.30
2867;DHT22;1441;48.886;8.728;2022-12-29T02:59:52;11.60;85.20
2867;DHT22;1441;48.886;8.728;2022-12-29T03:16:35;11.60;85.60
2867;DHT22;1441;48.886;8.728;2022-12-29T03:19:10;11.60;86.40
2867;DHT22;1441;48.886;8.728;2022-12-29T03:21:43;11.60;86.80
2867;DHT22;1441;48.886;8.728;2022-12-29T03:24:34;11.70;86.30
2867;DHT22;1441;48.886;8.728;2022-12-29T03:27:04;11.60;86.40
2867;DHT22;1441;48.886;8.728;2022-12-29T03:29:33;11.50;86.40
2867;DHT22;1441;48.886;8.728;2022-12-29T03:32:02;11.50;86.30
2867;DHT22;1441;48.886;8.728;2022-12-29T03:34:29;11.40;87.00
2867;DHT22;1441;48.886;8.728;2022-12-29T03:37:02;11.50;86.30
2867;DHT22;1441;48.886;8.728;2022-12-29T03:39:29;11.50;86.60
2867;DHT22;1441;48.886;8.728;2022-12-29T03:41:59;11.40;87.10
2867;DHT22;1441;48.886;8.728;2022-12-29T03:44:38;11.40;87.20
2867;DHT22;1441;48.886;8.728;2022-12-29T03:47:05;11.30;87.20
2867;DHT22;1441;48.886;8.728;2022-12-29T03:49:31;11.30;87.10
2867;DHT22;1441;48.886;8.728;2022-12-29T03:51:56;11.30;87.60
2867;DHT22;1441;48.886;8.728;2022-12-29T03:54:23;11.30;87.30
2867;DHT22;1441;48.886;8.728;2022-12-29T03:56:49;11.40;86.70
2867;DHT22;1441;48.886;8.728;2022-12-29T03:59:14;11.40;86.90
2867;DHT22;1441;48.886;8.728;2022-12-29T04:01:40;11.40;87.20
2867;DHT22;1441;48.886;8.728;2022-12-29T04:04:05;11.30;87.30
2867;DHT22;1441;48.886;8.728;2022-12-29T04:06:31;11.40;87.20
2867;DHT22;1441;48.886;8.728;2022-12-29T04:08:56;11.50;87.00
2867;DHT22;1441;48.886;8.728;2022-12-29T04:11:22;11.40;87.30
2867;DHT22;1441;48.886;8.728;2022-12-29T04:13:48;11.40;87.20
2867;DHT22;1441;48.886;8.728;2022-12-29T04:16:13;11.50;86.90
2867;DHT22;1441;48.886;8.728;2022-12-29T04:18:39;11.50;86.90
2867;DHT22;1441;48.886;8.728;2022-12-29T04:21:05;11.50;86.30
2867;DHT22;1441;48.886;8.728;2022-12-29T04:23:33;11.50;86.60
2867;DHT22;1441;48.886;8.728;2022-12-29T04:25:59;11.50;86.50
2867;DHT22;1441;48.886;8.728;2022-12-29T04:28:25;11.50;85.90
2867;DHT22;1441;48.886;8.728;2022-12-29T04:30:51;11.60;85.30
2867;DHT22;1441;48.886;8.728;2022-12-29T04:33:17;11.50;85.80
2867;DHT22;1441;48.886;8.728;2022-12-29T04:35:43;11.60;85.60
2867;DHT22;1441;48.886;8.728;2022-12-29T04:38:10;11.60;85.80
2867;DHT22;1441;48.886;8.728;2022-12-29T04:40:38;11.50;85.50
2867;DHT22;1441;48.886;8.728;2022-12-29T04:43:03;11.60;85.30
2867;DHT22;1441;48.886;8.728;2022-12-29T04:45:29;11.50;85.80
2867;DHT22;1441;48.886;8.728;2022-12-29T04:47:55;11.40;86.10
2867;DHT22;1441;48.886;8.728;2022-12-29T04:50:20;11.40;86.10
2867;DHT22;1441;48.886;8.728;2022-12-29T04:52:46;11.40;86.60
2867;DHT22;1441;48.886;8.728;2022-12-29T04:55:12;11.40;86.10
2867;DHT22;1441;48.886;8.728;2022-12-29T04:57:37;11.30;87.20
2867;DHT22;1441;48.886;8.728;2022-12-29T05:00:04;11.30;87.40
2867;DHT22;1441;48.886;8.728;2022-12-29T05:02:29;11.30;87.20
2867;DHT22;1441;48.886;8.728;2022-12-29T05:04:55;11.30;87.20
2867;DHT22;1441;48.886;8.728;2022-12-29T05:07:21;11.30;86.60
2867;DHT22;1441;48.886;8.728;2022-12-29T05:09:46;11.40;86.80
2867;DHT22;1441;48.886;8.728;2022-12-29T05:12:12;11.30;87.10
2867;DHT22;1441;48.886;8.728;2022-12-29T05:14:37;11.20;87.60
2867;DHT22;1441;48.886;8.728;2022-12-29T05:17:03;11.30;87.50
2867;DHT22;1441;48.886;8.728;2022-12-29T05:19:28;11.30;87.30
2867;DHT22;1441;48.886;8.728;2022-12-29T05:21:54;11.40;87.10
2867;DHT22;1441;48.886;8.728;2022-12-29T05:24:20;11.30;87.20
2867;DHT22;1441;48.886;8.728;2022-12-29T05:26:45;11.30;87.40
2867;DHT22;1441;48.886;8.728;2022-12-29T05:29:11;11.30;87.50
2867;DHT22;1441;48.886;8.728;2022-12-29T05:31:36;11.40;87.40
2867;DHT22;1441;48.886;8.728;2022-12-29T05:34:02;11.40;87.70
2867;DHT22;1441;48.886;8.728;2022-12-29T05:36:28;11.50;87.10
2867;DHT22;1441;48.886;8.728;2022-12-29T05:38:53;11.50;87.10
2867;DHT22;1441;48.886;8.728;2022-12-29T05:41:19;11.50;87.20
2867;DHT22;1441;48.886;8.728;2022-12-29T05:43:45;11.40;87.40
2867;DHT22;1441;48.886;8.728;2022-12-29T05:46:11;11.40;87.40
2867;DHT22;1441;48.886;8.728;2022-12-29T05:48:36;11.40;87.70
2867;DHT22;1441;48.886;8.728;2022-12-29T05:51:02;11.30;88.00
2867;DHT22;1441;48.886;8.728;2022-12-29T05:53:27;11.30;88.20
2867;DHT22;1441;48.886;8.728;2022-12-29T05:55:53;11.40;87.90
2867;DHT22;1441;48.886;8.728;2022-12-29T05:58:18;11.40;87.60
2867;DHT22;1441;48.886;8.728;2022-12-29T06:00:44;11.40;87.80
2867;DHT22;1441;48.886;8.728;2022-12-29T06:03:10;11.40;87.50
2867;DHT22;1441;48.886;8.728;2022-12-29T06:05:35;11.30;88.20
2867;DHT22;1441;48.886;8.728;2022-12-29T06:08:01;11.30;88.10
2867;DHT22;1441;48.886;8.728;2022-12-29T06:10:27;11.40;87.50
2867;DHT22;1441;48.886;8.728;2022-12-29T06:12:53;11.50;87.50
2867;DHT22;1441;48.886;8.728;2022-12-29T06:15:18;11.50;87.40
2867;DHT22;1441;48.886;8.728;2022-12-29T06:17:44;11.50;87.30
2867;DHT22;1441;48.886;8.728;2022-12-29T06:20:10;11.40;87.70
2867;DHT22;1441;48.886;8.728;2022-12-29T06:22:36;11.50;87.20
2867;DHT22;1441;48.886;8.728;2022-12-29T06:25:02;11.40;88.00
2867;DHT22;1441;48.886;8.728;2022-12-29T06:27:28;11.30;88.20
2867;DHT22;1441;48.886;8.728;2022-12-29T06:29:54;11.30;88.10
2867;DHT22;1441;48.886;8.728;2022-12-29T06:32:20;11.40;87.80
2867;DHT22;1441;48.886;8.728;2022-12-29T06:34:45;11.40;87.70
2867;DHT22;1441;48.886;8.728;2022-12-29T06:37:11;11.50;87.30
2867;DHT22;1441;48.886;8.728;2022-12-29T06:39:37;11.40;87.60
2867;DHT22;1441;48.886;8.728;2022-12-29T06:42:03;11.60;86.60
2867;DHT22;1441;48.886;8.728;2022-12-29T06:44:29;11.50;87.40
2867;DHT22;1441;48.886;8.728;2022-12-29T06:46:54;11.50;87.10
2867;DHT22;1441;48.886;8.728;2022-12-29T06:49:20;11.60;86.40
2867;DHT22;1441;48.886;8.728;2022-12-29T06:51:46;11.60;87.20
2867;DHT22;1441;48.886;8.728;2022-12-29T06:54:12;11.70;86.10
2867;DHT22;1441;48.886;8.728;2022-12-29T06:56:38;11.80;85.60
2867;DHT22;1441;48.886;8.728;2022-12-29T06:59:03;11.70;85.60
2867;DHT22;1441;48.886;8.728;2022-12-29T07:01:30;11.70;85.70
2867;DHT22;1441;48.886;8.728;2022-12-29T07:03:55;11.60;86.80
2867;DHT22;1441;48.886;8.728;2022-12-29T07:06:21;11.80;85.10
2867;DHT22;1441;48.886;8.728;2022-12-29T07:08:46;11.70;85.40
2867;DHT22;1441;48.886;8.728;2022-12-29T07:11:12;12.00;84.00
2867;DHT22;1441;48.886;8.728;2022-12-29T07:13:38;12.00;84.10
2867;DHT22;1441;48.886;8.728;2022-12-29T07:16:07;12.00;83.90
2867;DHT22;1441;48.886;8.728;2022-12-29T07:18:34;12.00;83.70
2867;DHT22;1441;48.886;8.728;2022-12-29T07:20:59;12.00;83.60
2867;DHT22;1441;48.886;8.728;2022-12-29T07:23:25;12.00;83.90
2867;DHT22;1441;48.886;8.728;2022-12-29T07:26:01;12.00;84.00
2867;DHT22;1441;48.886;8.728;2022-12-29T07:28:27;12.10;83.20
2867;DHT22;1441;48.886;8.728;2022-12-29T07:30:53;12.30;82.90
2867;DHT22;1441;48.886;8.728;2022-12-29T07:33:18;12.20;83.60
2867;DHT22;1441;48.886;8.728;2022-12-29T07:35:44;12.40;81.90
2867;DHT22;1441;48.886;8.728;2022-12-29T07:38:09;12.30;81.90
2867;DHT22;1441;48.886;8.728;2022-12-29T07:40:35;12.40;81.30
2867;DHT22;1441;48.886;8.728;2022-12-29T07:43:00;12.40;81.90
2867;DHT22;1441;48.886;8.728;2022-12-29T07:45:26;12.30;81.60
2867;DHT22;1441;48.886;8.728;2022-12-29T07:47:52;12.40;81.40
2867;DHT22;1441;48.886;8.728;2022-12-29T07:50:17;12.20;82.00
2867;DHT22;1441;48.886;8.728;2022-12-29T07:52:43;12.10;83.10
2867;DHT22;1441;48.886;8.728;2022-12-29T07:55:10;12.20;82.90
2867;DHT22;1441;48.886;8.728;2022-12-29T07:57:35;12.20;82.70
2867;DHT22;1441;48.886;8.728;2022-12-29T08:00:02;12.20;82.50
2867;DHT22;1441;48.886;8.728;2022-12-29T08:02:28;12.50;81.40
2867;DHT22;1441;48.886;8.728;2022-12-29T08:04:55;12.40;82.20
2867;DHT22;1441;48.886;8.728;2022-12-29T08:07:20;12.20;83.00
2867;DHT22;1441;48.886;8.728;2022-12-29T08:09:46;12.20;82.00
2867;DHT22;1441;48.886;8.728;2022-12-29T08:12:11;12.40;81.40
2867;DHT22;1441;48.886;8.728;2022-12-29T08:14:37;12.40;82.00
2867;DHT22;1441;48.886;8.728;2022-12-29T08:17:03;12.20;82.10
2867;DHT22;1441;48.886;8.728;2022-12-29T08:19:28;12.30;81.80
2867;DHT22;1441;48.886;8.728;2022-12-29T08:21:54;12.40;81.50
2867;DHT22;1441;48.886;8.728;2022-12-29T08:24:19;12.60;80.00
2867;DHT22;1441;48.886;8.728;2022-12-29T08:26:45;12.70;80.30
2867;DHT22;1441;48.886;8.728;2022-12-29T08:29:11;12.70;80.30
2867;DHT22;1441;48.886;8.728;2022-12-29T08:31:36;12.70;80.10
2867;DHT22;1441;48.886;8.728;2022-12-29T08:34:02;12.70;80.10
2867;DHT22;1441;48.886;8.728;2022-12-29T08:36:29;12.60;80.80
2867;DHT22;1441;48.886;8.728;2022-12-29T08:38:56;12.50;81.40
2867;DHT22;1441;48.886;8.728;2022-12-29T08:41:21;12.40;81.80
2867;DHT22;1441;48.886;8.728;2022-12-29T08:43:47;12.40;81.60
2867;DHT22;1441;48.886;8.728;2022-12-29T08:46:14;12.60;81.00
2867;DHT22;1441;48.886;8.728;2022-12-29T08:48:39;12.50;81.40
2867;DHT22;1441;48.886;8.728;2022-12-29T08:51:05;12.60;81.20
2867;DHT22;1441;48.886;8.728;2022-12-29T08:53:30;12.70;80.50
2867;DHT22;1441;48.886;8.728;2022-12-29T08:56:00;12.50;81.80
2867;DHT22;1441;48.886;8.728;2022-12-29T08:58:26;12.60;80.90
2867;DHT22;1441;48.886;8.728;2022-12-29T09:00:54;12.70;81.20
2867;DHT22;1441;48.886;8.728;2022-12-29T09:03:20;12.60;80.70
2867;DHT22;1441;48.886;8.728;2022-12-29T09:05:52;12.70;81.00
2867;DHT22;1441;48.886;8.728;2022-12-29T09:08:19;12.60;82.10
2867;DHT22;1441;48.886;8.728;2022-12-29T09:10:45;12.70;81.40
2867;DHT22;1441;48.886;8.728;2022-12-29T09:13:11;12.80;80.60
2867;DHT22;1441;48.886;8.728;2022-12-29T09:15:38;12.80;80.30
2867;DHT22;1441;48.886;8.728;2022-12-29T09:18:04;12.80;80.90
2867;DHT22;1441;48.886;8.728;2022-12-29T09:20:30;12.90;80.50
2867;DHT22;1441;48.886;8.728;2022-12-29T09:22:55;12.90;81.80
2867;DHT22;1441;48.886;8.728;2022-12-29T09:25:21;12.70;82.30
2867;DHT22;1441;48.886;8.728;2022-12-29T09:27:52;12.70;82.90
2867;DHT22;1441;48.886;8.728;2022-12-29T09:30:20;12.70;82.40
2867;DHT22;1441;48.886;8.728;2022-12-29T09:32:46;12.70;82.60
2867;DHT22;1441;48.886;8.728;2022-12-29T09:35:13;12.70;83.00
2867;DHT22;1441;48.886;8.728;2022-12-29T09:37:39;12.60;83.50
2867;DHT22;1441;48.886;8.728;2022-12-29T09:40:05;12.60;83.10
2867;DHT22;1441;48.886;8.728;2022-12-29T09:42:58;12.60;83.20
2867;DHT22;1441;48.886;8.728;2022-12-29T09:45:42;12.70;83.10
2867;DHT22;1441;48.886;8.728;2022-12-29T09:48:16;12.70;83.40
2867;DHT22;1441;48.886;8.728;2022-12-29T09:50:46;12.80;82.80
2867;DHT22;1441;48.886;8.728;2022-12-29T09:53:36;12.80;83.50
2867;DHT22;1441;48.886;8.728;2022-12-29T09:56:05;12.70;84.00
2867;DHT22;1441;48.886;8.728;2022-12-29T09:58:48;12.70;84.10
2867;DHT22;1441;48.886;8.728;2022-12-29T10:01:36;12.60;84.60
2867;DHT22;1441;48.886;8.728;2022-12-29T10:04:03;12.60;84.50
2867;DHT22;1441;48.886;8.728;2022-12-29T10:12:14;12.90;84.50
2867;DHT22;1441;48.886;8.728;2022-12-29T10:25:32;12.80;84.40
2867;DHT22;1441;48.886;8.728;2022-12-29T10:28:00;12.80;84.30
2867;DHT22;1441;48.886;8.728;2022-12-29T10:30:27;12.90;84.20
2867;DHT22;1441;48.886;8.728;2022-12-29T10:32:57;13.00;84.00
2867;DHT22;1441;48.886;8.728;2022-12-29T10:35:29;13.00;83.90
2867;DHT22;1441;48.886;8.728;2022-12-29T10:38:25;13.10;83.40
2867;DHT22;1441;48.886;8.728;2022-12-29T10:43:35;13.10;83.30
2867;DHT22;1441;48.886;8.728;2022-12-29T10:46:05;13.10;83.30
2867;DHT22;1441;48.886;8.728;2022-12-29T10:48:34;13.20;83.40
2867;DHT22;1441;48.886;8.728;2022-12-29T10:51:02;13.20;84.10
2867;DHT22;1441;48.886;8.728;2022-12-29T10:53:49;13.20;83.60
2867;DHT22;1441;48.886;8.728;2022-12-29T10:56:33;13.20;83.90
2867;DHT22;1441;48.886;8.728;2022-12-29T10:59:06;13.30;84.10
2867;DHT22;1441;48.886;8.728;2022-12-29T11:01:48;13.20;83.10
2867;DHT22;1441;48.886;8.728;2022-12-29T11:07:00;13.20;83.10
2867;DHT22;1441;48.886;8.728;2022-12-29T11:09:33;13.10;82.80
2867;DHT22;1441;48.886;8.728;2022-12-29T11:12:00;13.10;83.20
2867;DHT22;1441;48.886;8.728;2022-12-29T11:14:28;13.00;83.20
2867;DHT22;1441;48.886;8.728;2022-12-29T11:17:03;13.00;83.90
2867;DHT22;1441;48.886;8.728;2022-12-29T11:19:32;13.00;83.70
2867;DHT22;1441;48.886;8.728;2022-12-29T11:22:27;13.10;83.30
2867;DHT22;1441;48.886;8.728;2022-12-29T11:24:54;13.00;83.30
2867;DHT22;1441;48.886;8.728;2022-12-29T11:27:25;12.90;83.60
2867;DHT22;1441;48.886;8.728;2022-12-29T11:29:52;12.90;83.70
2867;DHT22;1441;48.886;8.728;2022-12-29T11:32:27;13.00;83.40
2867;DHT22;1441;48.886;8.728;2022-12-29T11:34:58;13.00;83.40
2867;DHT22;1441;48.886;8.728;2022-12-29T11:37:31;13.00;82.50
2867;DHT22;1441;48.886;8.728;2022-12-29T11:40:02;13.00;83.00
2867;DHT22;1441;48.886;8.728;2022-12-29T11:42:55;13.10;83.40
2867;DHT22;1441;48.886;8.728;2022-12-29T11:45:22;13.10;84.10
2867;DHT22;1441;48.886;8.728;2022-12-29T11:47:53;12.90;85.60
2867;DHT22;1441;48.886;8.728;2022-12-29T11:50:29;12.70;85.20
2867;DHT22;1441;48.886;8.728;2022-12-29T11:53:32;12.70;85.40
2867;DHT22;1441;48.886;8.728;2022-12-29T11:56:12;12.80;84.80
2867;DHT22;1441;48.886;8.728;2022-12-29T11:58:39;13.00;85.10
2867;DHT22;1441;48.886;8.728;2022-12-29T12:01:13;13.10;84.90
2867;DHT22;1441;48.886;8.728;2022-12-29T12:03:45;13.30;83.30
2867;DHT22;1441;48.886;8.728;2022-12-29T12:06:14;13.40;84.40
2867;DHT22;1441;48.886;8.728;2022-12-29T12:08:53;13.20;84.50
2867;DHT22;1441;48.886;8.728;2022-12-29T12:11:24;13.00;85.10
2867;DHT22;1441;48.886;8.728;2022-12-29T12:14:05;13.10;84.90
2867;DHT22;1441;48.886;8.728;2022-12-29T12:16:47;13.10;85.00
2867;DHT22;1441;48.886;8.728;2022-12-29T12:22:31;13.00;85.80
2867;DHT22;1441;48.886;8.728;2022-12-29T12:27:48;12.80;87.00
2867;DHT22;1441;48.886;8.728;2022-12-29T12:30:22;12.60;87.30
2867;DHT22;1441;48.886;8.728;2022-12-29T12:41:13;12.70;87.20
2867;DHT22;1441;48.886;8.728;2022-12-29T12:47:26;12.70;86.90
2867;DHT22;1441;48.886;8.728;2022-12-29T13:04:08;12.90;85.80
2867;DHT22;1441;48.886;8.728;2022-12-29T13:12:36;12.80;86.40
2867;DHT22;1441;48.886;8.728;2022-12-29T13:18:13;12.80;85.90
2867;DHT22;1441;48.886;8.728;2022-12-29T13:21:04;12.70;85.70
2867;DHT22;1441;48.886;8.728;2022-12-29T13:29:34;12.60;85.90
2867;DHT22;1441;48.886;8.728;2022-12-29T13:35:10;12.70;85.70
2867;DHT22;1441;48.886;8.728;2022-12-29T13:37:52;12.70;86.00
2867;DHT22;1441;48.886;8.728;2022-12-29T13:40:23;12.60;86.10
2867;DHT22;1441;48.886;8.728;2022-12-29T13:42:49;12.60;86.50
2867;DHT22;1441;48.886;8.728;2022-12-29T13:45:22;12.40;87.10
2867;DHT22;1441;48.886;8.728;2022-12-29T13:50:38;12.30;87.70
2867;DHT22;1441;48.886;8.728;2022-12-29T13:53:27;12.30;88.30
2867;DHT22;1441;48.886;8.728;2022-12-29T13:58:39;12.30;88.00
2867;DHT22;1441;48.886;8.728;2022-12-29T14:01:35;12.30;88.30
2867;DHT22;1441;48.886;8.728;2022-12-29T14:04:10;12.40;87.30
2867;DHT22;1441;48.886;8.728;2022-12-29T14:06:36;12.50;87.30
2867;DHT22;1441;48.886;8.728;2022-12-29T14:09:32;12.50;88.00
2867;DHT22;1441;48.886;8.728;2022-12-29T14:11:53;12.60;87.00
2867;DHT22;1441;48.886;8.728;2022-12-29T14:14:24;12.50;88.20
2867;DHT22;1441;48.886;8.728;2022-12-29T14:16:52;12.40;88.20
2867;DHT22;1441;48.886;8.728;2022-12-29T14:19:23;12.40;88.70
2867;DHT22;1441;48.886;8.728;2022-12-29T14:22:00;12.50;87.80
2867;DHT22;1441;48.886;8.728;2022-12-29T14:34:54;12.70;86.40
2867;DHT22;1441;48.886;8.728;2022-12-29T14:37:36;12.60;87.50
2867;DHT22;1441;48.886;8.728;2022-12-29T14:40:24;12.40;88.40
2867;DHT22;1441;48.886;8.728;2022-12-29T14:42:54;12.40;88.60
2867;DHT22;1441;48.886;8.728;2022-12-29T14:47:48;12.30;89.90
2867;DHT22;1441;48.886;8.728;2022-12-29T14:50:23;12.30;91.60
2867;DHT22;1441;48.886;8.728;2022-12-29T14:53:00;12.20;92.10
2867;DHT22;1441;48.886;8.728;2022-12-29T14:58:27;12.00;94.50
2867;DHT22;1441;48.886;8.728;2022-12-29T15:00:54;12.00;96.00
2867;DHT22;1441;48.886;8.728;2022-12-29T15:03:28;11.80;99.10
2867;DHT22;1441;48.886;8.728;2022-12-29T15:08:42;11.20;99.90
2867;DHT22;1441;48.886;8.728;2022-12-29T15:11:15;10.90;99.90
2867;DHT22;1441;48.886;8.728;2022-12-29T15:13:43;10.70;99.90
2867;DHT22;1441;48.886;8.728;2022-12-29T15:18:48;10.40;99.90
2867;DHT22;1441;48.886;8.728;2022-12-29T15:21:15;10.40;99.90
2867;DHT22;1441;48.886;8.728;2022-12-29T15:23:43;10.30;99.90
2867;DHT22;1441;48.886;8.728;2022-12-29T15:26:10;10.30;99.90
2867;DHT22;1441;48.886;8.728;2022-12-29T15:28:40;10.20;99.90
2867;DHT22;1441;48.886;8.728;2022-12-29T15:31:14;10.20;99.90
2867;DHT22;1441;48.886;8.728;2022-12-29T15:33:43;10.10;99.90
2867;DHT22;1441;48.886;8.728;2022-12-29T15:36:15;10.10;99.90
2867;DHT22;1441;48.886;8.728;2022-12-29T15:38:42;10.00;99.90
2867;DHT22;1441;48.886;8.728;2022-12-29T15:41:39;10.00;99.90
2867;DHT22;1441;48.886;8.728;2022-12-29T15:44:39;10.00;99.90
2867;DHT22;1441;48.886;8.728;2022-12-29T15:47:17;9.90;99.90
2867;DHT22;1441;48.886;8.728;2022-12-29T15:49:47;9.90;99.90
2867;DHT22;1441;48.886;8.728;2022-12-29T15:52:17;9.80;99.90
2867;DHT22;1441;48.886;8.728;2022-12-29T15:54:44;9.90;99.90
2867;DHT22;1441;48.886;8.728;2022-12-29T15:57:24;9.80;99.90
2867;DHT22;1441;48.886;8.728;2022-12-29T15:59:50;9.80;99.90
2867;DHT22;1441;48.886;8.728;2022-12-29T16:02:15;9.90;99.90
2867;DHT22;1441;48.886;8.728;2022-12-29T16:04:41;9.90;99.90
2867;DHT22;1441;48.886;8.728;2022-12-29T16:07:30;9.90;99.90
2867;DHT22;1441;48.886;8.728;2022-12-29T16:09:58;9.90;99.90
2867;DHT22;1441;48.886;8.728;2022-12-29T16:12:29;9.80;99.90
2867;DHT22;1441;48.886;8.728;2022-12-29T16:14:58;9.80;99.90
2867;DHT22;1441;48.886;8.728;2022-12-29T16:17:27;9.80;99.90
2867;DHT22;1441;48.886;8.728;2022-12-29T16:20:00;9.80;99.90
2867;DHT22;1441;48.886;8.728;2022-12-29T16:22:36;9.80;99.90
2867;DHT22;1441;48.886;8.728;2022-12-29T16:27:49;9.80;99.90
2867;DHT22;1441;48.886;8.728;2022-12-29T16:30:30;9.70;99.90
2867;DHT22;1441;48.886;8.728;2022-12-29T16:32:58;9.70;99.90
2867;DHT22;1441;48.886;8.728;2022-12-29T16:38:23;9.60;99.90
2867;DHT22;1441;48.886;8.728;2022-12-29T16:40:59;9.60;99.90
2867;DHT22;1441;48.886;8.728;2022-12-29T16:43:30;9.60;99.90
2867;DHT22;1441;48.886;8.728;2022-12-29T16:48:32;9.70;99.90
2867;DHT22;1441;48.886;8.728;2022-12-29T16:51:21;9.70;99.90
2867;DHT22;1441;48.886;8.728;2022-12-29T16:53:50;9.70;99.90
2867;DHT22;1441;48.886;8.728;2022-12-29T16:56:20;9.70;99.90
2867;DHT22;1441;48.886;8.728;2022-12-29T16:58:52;9.60;99.90
2867;DHT22;1441;48.886;8.728;2022-12-29T17:01:20;9.60;99.90
2867;DHT22;1441;48.886;8.728;2022-12-29T17:03:53;9.60;99.90
2867;DHT22;1441;48.886;8.728;2022-12-29T17:06:20;9.60;99.90
2867;DHT22;1441;48.886;8.728;2022-12-29T17:08:47;9.60;99.90
2867;DHT22;1441;48.886;8.728;2022-12-29T17:11:26;9.60;99.90
2867;DHT22;1441;48.886;8.728;2022-12-29T17:17:04;9.60;99.90
2867;DHT22;1441;48.886;8.728;2022-12-29T17:19:35;9.60;99.90
2867;DHT22;1441;48.886;8.728;2022-12-29T17:22:03;9.60;99.90
2867;DHT22;1441;48.886;8.728;2022-12-29T17:24:34;9.60;99.90
2867;DHT22;1441;48.886;8.728;2022-12-29T17:27:00;9.60;99.90
2867;DHT22;1441;48.886;8.728;2022-12-29T17:29:30;9.50;99.90
2867;DHT22;1441;48.886;8.728;2022-12-29T17:31:58;9.60;99.90
2867;DHT22;1441;48.886;8.728;2022-12-29T17:34:24;9.60;99.90
2867;DHT22;1441;48.886;8.728;2022-12-29T17:36:50;9.60;99.90
2867;DHT22;1441;48.886;8.728;2022-12-29T17:39:15;9.50;99.90
2867;DHT22;1441;48.886;8.728;2022-12-29T17:41:41;9.50;99.90
2867;DHT22;1441;48.886;8.728;2022-12-29T17:44:15;9.40;99.90
2867;DHT22;1441;48.886;8.728;2022-12-29T17:46:41;9.40;99.90
2867;DHT22;1441;48.886;8.728;2022-12-29T17:49:13;9.40;99.90
2867;DHT22;1441;48.886;8.728;2022-12-29T17:51:41;9.30;99.90
2867;DHT22;1441;48.886;8.728;2022-12-29T17:54:20;9.30;99.90
2867;DHT22;1441;48.886;8.728;2022-12-29T17:56:46;9.30;99.90
2867;DHT22;1441;48.886;8.728;2022-12-29T17:59:12;9.30;99.90
2867;DHT22;1441;48.886;8.728;2022-12-29T18:01:42;9.30;99.90
2867;DHT22;1441;48.886;8.728;2022-12-29T18:04:14;9.20;99.90
2867;DHT22;1441;48.886;8.728;2022-12-29T18:06:41;9.20;99.90
2867;DHT22;1441;48.886;8.728;2022-12-29T18:09:07;9.10;99.90
2867;DHT22;1441;48.886;8.728;2022-12-29T18:11:37;9.10;99.90
2867;DHT22;1441;48.886;8.728;2022-12-29T18:14:03;9.10;99.90
2867;DHT22;1441;48.886;8.728;2022-12-29T18:16:29;9.10;99.90
2867;DHT22;1441;48.886;8.728;2022-12-29T18:18:54;9.10;99.90
2867;DHT22;1441;48.886;8.728;2022-12-29T18:21:21;9.10;99.90
2867;DHT22;1441;48.886;8.728;2022-12-29T18:23:48;9.10;99.90
2867;DHT22;1441;48.886;8.728;2022-12-29T18:26:19;9.10;99.90
2867;DHT22;1441;48.886;8.728;2022-12-29T18:28:46;9.00;99.90
2867;DHT22;1441;48.886;8.728;2022-12-29T18:31:22;9.00;99.90
2867;DHT22;1441;48.886;8.728;2022-12-29T18:33:49;9.00;99.90
2867;DHT22;1441;48.886;8.728;2022-12-29T18:36:17;8.90;99.90
2867;DHT22;1441;48.886;8.728;2022-12-29T18:38:43;9.00;99.90
2867;DHT22;1441;48.886;8.728;2022-12-29T18:41:20;8.90;99.90
2867;DHT22;1441;48.886;8.728;2022-12-29T18:43:47;8.90;99.90
2867;DHT22;1441;48.886;8.728;2022-12-29T18:46:12;8.90;99.90
2867;DHT22;1441;48.886;8.728;2022-12-29T18:48:38;8.90;99.90
2867;DHT22;1441;48.886;8.728;2022-12-29T18:51:05;8.90;99.90
2867;DHT22;1441;48.886;8.728;2022-12-29T18:53:30;8.90;99.90
2867;DHT22;1441;48.886;8.728;2022-12-29T18:55:57;8.80;99.90